Time,TemperatureF,DewpointF,PressureIn,WindDirection,WindDirectionDegrees,WindSpeedMPH,WindSpeedGustMPH,Humidity,HourlyPrecipIn,Conditions,Clouds,dailyrainin,SoftwareType,DateUTC
2013-02-19 00:00:00,41.9,33.9,29.56,South,180,3.4,6.3,73,0.00,,,0.00,WUHU216HW,2013-02-19 05:00:00,
2013-02-19 00:01:00,41.9,33.9,29.56,ESE,113,3.8,6.3,73,0.00,,,0.00,WUHU216HW,2013-02-19 05:01:00,
2013-02-19 00:06:00,42.1,34.1,29.56,SSW,203,5.4,5.4,73,0.00,,,0.00,WUHU216HW,2013-02-19 05:06:00,
2013-02-19 00:11:00,42.1,34.1,29.56,South,180,2.9,6.9,73,0.00,,,0.00,WUHU216HW,2013-02-19 05:11:00,
2013-02-19 00:16:00,42.1,34.1,29.55,South,180,3.6,6.9,73,0.00,,,0.00,WUHU216HW,2013-02-19 05:16:00,
2013-02-19 00:21:00,42.1,34.1,29.55,South,180,5.4,5.8,73,0.00,,,0.00,WUHU216HW,2013-02-19 05:21:00,
2013-02-19 00:26:00,42.3,34.3,29.54,South,180,5.6,9.2,73,0.00,,,0.00,WUHU216HW,2013-02-19 05:26:00,
2013-02-19 00:31:00,42.5,34.1,29.54,South,180,3.8,9.2,72,0.00,,,0.00,WUHU216HW,2013-02-19 05:31:00,
2013-02-19 00:36:00,42.5,34.1,29.54,South,180,6.9,7.4,72,0.00,,,0.00,WUHU216HW,2013-02-19 05:36:00,
2013-02-19 00:41:00,42.7,34.3,29.54,South,180,3.6,6.9,72,0.00,,,0.00,WUHU216HW,2013-02-19 05:41:00,
2013-02-19 00:46:00,42.8,34.5,29.54,SSE,158,4.0,5.8,72,0.00,,,0.00,WUHU216HW,2013-02-19 05:46:00,
2013-02-19 00:51:00,42.8,34.5,29.53,South,180,3.6,6.9,72,0.00,,,0.00,WUHU216HW,2013-02-19 05:51:00,
2013-02-19 00:56:00,43.0,34.7,29.53,SSE,158,2.9,8.5,72,0.00,,,0.00,WUHU216HW,2013-02-19 05:56:00,
2013-02-19 01:01:00,43.0,34.7,29.53,South,180,3.8,8.5,72,0.00,,,0.00,WUHU216HW,2013-02-19 06:01:00,
2013-02-19 01:06:00,43.0,35.0,29.53,SSW,203,6.3,8.3,73,0.00,,,0.00,WUHU216HW,2013-02-19 06:06:00,
2013-02-19 01:11:00,43.0,35.3,29.52,South,180,3.4,8.3,74,0.00,,,0.00,WUHU216HW,2013-02-19 06:11:00,
2013-02-19 01:16:00,43.0,35.7,29.52,South,180,5.4,6.9,75,0.00,,,0.00,WUHU216HW,2013-02-19 06:16:00,
2013-02-19 01:21:00,42.8,36.1,29.52,South,180,3.6,6.9,77,0.01,,,0.01,WUHU216HW,2013-02-19 06:21:00,
2013-02-19 01:26:00,42.5,36.1,29.52,SSW,203,4.9,6.9,78,0.01,,,0.01,WUHU216HW,2013-02-19 06:26:00,
2013-02-19 01:31:00,42.3,36.8,29.51,South,180,3.1,6.5,81,0.02,,,0.02,WUHU216HW,2013-02-19 06:31:00,
2013-02-19 01:36:00,42.1,36.6,29.50,South,180,3.4,5.8,81,0.02,,,0.02,WUHU216HW,2013-02-19 06:36:00,
2013-02-19 01:41:00,41.9,36.5,29.50,SSE,158,3.1,5.8,81,0.02,,,0.02,WUHU216HW,2013-02-19 06:41:00,
2013-02-19 01:46:00,41.8,36.6,29.50,South,180,4.0,5.6,82,0.03,,,0.03,WUHU216HW,2013-02-19 06:46:00,
2013-02-19 01:51:00,41.6,36.5,29.49,South,180,2.5,5.6,82,0.03,,,0.03,WUHU216HW,2013-02-19 06:51:00,
2013-02-19 01:56:00,41.4,36.9,29.49,South,180,4.0,6.9,84,0.04,,,0.04,WUHU216HW,2013-02-19 06:56:00,
2013-02-19 02:01:00,41.4,37.2,29.49,SSE,158,4.0,6.9,85,0.04,,,0.04,WUHU216HW,2013-02-19 07:01:00,
2013-02-19 02:06:00,41.2,36.7,29.49,South,180,4.3,6.7,84,0.04,,,0.04,WUHU216HW,2013-02-19 07:06:00,
2013-02-19 02:11:00,41.0,36.6,29.48,SSE,158,1.8,6.7,84,0.04,,,0.04,WUHU216HW,2013-02-19 07:11:00,
2013-02-19 02:16:00,41.0,36.8,29.48,SSE,158,2.9,5.1,85,0.03,,,0.04,WUHU216HW,2013-02-19 07:16:00,
2013-02-19 02:21:00,41.0,37.1,29.47,South,180,4.3,5.6,86,0.03,,,0.04,WUHU216HW,2013-02-19 07:21:00,
2013-02-19 02:26:00,41.0,37.1,29.47,South,180,9.2,9.2,86,0.03,,,0.04,WUHU216HW,2013-02-19 07:26:00,
2013-02-19 02:31:00,41.0,37.1,29.47,SW,225,4.7,9.2,86,0.03,,,0.05,WUHU216HW,2013-02-19 07:31:00,
2013-02-19 02:36:00,41.2,37.6,29.46,East,90,6.5,7.4,87,0.03,,,0.05,WUHU216HW,2013-02-19 07:36:00,
2013-02-19 02:41:00,41.0,37.1,29.46,South,180,7.6,7.6,86,0.02,,,0.05,WUHU216HW,2013-02-19 07:41:00,
2013-02-19 02:46:00,41.0,37.5,29.46,SSE,158,4.7,8.1,87,0.02,,,0.05,WUHU216HW,2013-02-19 07:46:00,
2013-02-19 02:51:00,41.0,37.5,29.45,SSE,158,3.4,9.8,87,0.02,,,0.05,WUHU216HW,2013-02-19 07:51:00,
2013-02-19 02:56:00,41.0,37.5,29.45,South,180,5.8,9.8,87,0.01,,,0.05,WUHU216HW,2013-02-19 07:56:00,
2013-02-19 03:01:00,41.0,37.7,29.45,South,180,2.5,7.4,88,0.02,,,0.07,WUHU216HW,2013-02-19 08:01:00,
2013-02-19 03:06:00,40.9,37.5,29.44,SSE,158,8.1,8.1,88,0.02,,,0.07,WUHU216HW,2013-02-19 08:06:00,
2013-02-19 03:11:00,40.9,37.5,29.44,SSW,203,4.7,9.2,88,0.03,,,0.07,WUHU216HW,2013-02-19 08:11:00,
2013-02-19 03:16:00,40.9,37.5,29.44,SSE,158,6.3,9.2,88,0.04,,,0.09,WUHU216HW,2013-02-19 08:16:00,
2013-02-19 03:21:00,40.9,37.5,29.43,SSE,158,5.1,11.0,88,0.04,,,0.09,WUHU216HW,2013-02-19 08:21:00,
2013-02-19 03:26:00,40.9,37.5,29.42,SSE,158,6.3,11.0,88,0.04,,,0.09,WUHU216HW,2013-02-19 08:26:00,
2013-02-19 03:31:00,40.7,37.4,29.42,SSE,158,6.3,6.7,88,0.04,,,0.09,WUHU216HW,2013-02-19 08:31:00,
2013-02-19 03:36:00,40.7,37.7,29.41,SE,135,6.9,7.6,89,0.04,,,0.09,WUHU216HW,2013-02-19 08:36:00,
2013-02-19 03:41:00,40.7,37.4,29.41,South,180,2.2,9.6,88,0.04,,,0.09,WUHU216HW,2013-02-19 08:41:00,
2013-02-19 03:46:00,40.7,37.7,29.41,South,180,9.8,9.8,89,0.04,,,0.09,WUHU216HW,2013-02-19 08:46:00,
2013-02-19 03:51:00,40.7,37.7,29.40,SSE,158,6.7,9.8,89,0.04,,,0.09,WUHU216HW,2013-02-19 08:51:00,
2013-02-19 03:56:00,40.7,37.7,29.40,SSE,158,4.5,8.5,89,0.05,,,0.10,WUHU216HW,2013-02-19 08:56:00,
2013-02-19 04:01:00,40.7,37.7,29.39,South,180,10.1,10.1,89,0.05,,,0.10,WUHU216HW,2013-02-19 09:01:00,
2013-02-19 04:06:00,40.7,37.7,29.39,South,180,6.3,10.1,89,0.05,,,0.12,WUHU216HW,2013-02-19 09:06:00,
2013-02-19 04:11:00,40.7,37.7,29.39,SW,225,4.7,9.6,89,0.04,,,0.12,WUHU216HW,2013-02-19 09:11:00,
2013-02-19 04:16:00,40.7,37.7,29.39,South,180,3.8,9.6,89,0.04,,,0.12,WUHU216HW,2013-02-19 09:16:00,
2013-02-19 04:21:00,40.7,38.0,29.38,SSE,158,6.9,7.8,90,0.05,,,0.14,WUHU216HW,2013-02-19 09:21:00,
2013-02-19 04:26:00,40.7,38.0,29.38,SSW,203,8.9,13.9,90,0.04,,,0.14,WUHU216HW,2013-02-19 09:26:00,
2013-02-19 04:31:00,40.7,38.0,29.38,South,180,7.2,13.9,90,0.04,,,0.14,WUHU216HW,2013-02-19 09:31:00,
2013-02-19 04:36:00,40.7,38.0,29.37,SSE,158,6.0,7.6,90,0.04,,,0.14,WUHU216HW,2013-02-19 09:36:00,
2013-02-19 04:41:00,40.7,38.0,29.37,SSE,158,5.6,7.8,90,0.05,,,0.14,WUHU216HW,2013-02-19 09:41:00,
2013-02-19 04:46:00,40.9,38.2,29.37,West,270,3.4,8.1,90,0.05,,,0.14,WUHU216HW,2013-02-19 09:46:00,
2013-02-19 04:51:00,40.9,38.2,29.37,SSE,158,8.5,8.5,90,0.04,,,0.14,WUHU216HW,2013-02-19 09:51:00,
2013-02-19 04:56:00,40.9,38.2,29.37,SSW,203,2.7,8.5,90,0.04,,,0.14,WUHU216HW,2013-02-19 09:56:00,
2013-02-19 05:01:00,41.0,38.3,29.37,SSW,203,3.4,6.5,90,0.03,,,0.14,WUHU216HW,2013-02-19 10:01:00,
2013-02-19 05:06:00,41.0,38.3,29.37,SSW,203,4.0,6.5,90,0.03,,,0.14,WUHU216HW,2013-02-19 10:06:00,
2013-02-19 05:11:00,41.2,38.5,29.37,SW,225,3.8,5.4,90,0.03,,,0.14,WUHU216HW,2013-02-19 10:11:00,
2013-02-19 05:16:00,41.2,38.5,29.37,SW,225,2.5,7.8,90,0.01,,,0.14,WUHU216HW,2013-02-19 10:16:00,
2013-02-19 05:21:00,41.4,38.7,29.37,WSW,248,4.9,7.8,90,0.01,,,0.14,WUHU216HW,2013-02-19 10:21:00,
2013-02-19 05:26:00,41.4,38.7,29.37,South,180,5.8,7.6,90,0.01,,,0.14,WUHU216HW,2013-02-19 10:26:00,
2013-02-19 05:31:00,41.4,38.7,29.38,WSW,248,8.5,9.2,90,0.02,,,0.16,WUHU216HW,2013-02-19 10:31:00,
2013-02-19 05:36:00,41.4,38.4,29.39,West,270,7.6,9.2,89,0.01,,,0.16,WUHU216HW,2013-02-19 10:36:00,
2013-02-19 05:41:00,40.7,37.1,29.40,ENE,68,2.5,7.6,87,0.01,,,0.16,WUHU216HW,2013-02-19 10:41:00,
2013-02-19 05:46:00,40.1,36.5,29.40,NNW,338,1.8,6.3,87,0.01,,,0.16,WUHU216HW,2013-02-19 10:46:00,
2013-02-19 05:51:00,39.6,36.0,29.41,WNW,293,3.6,9.6,87,0.01,,,0.16,WUHU216HW,2013-02-19 10:51:00,
2013-02-19 05:56:00,39.2,35.4,29.41,WSW,248,4.9,9.6,86,0.01,,,0.16,WUHU216HW,2013-02-19 10:56:00,
2013-02-19 06:01:00,38.9,35.0,29.41,West,270,7.8,7.8,86,0.01,,,0.16,WUHU216HW,2013-02-19 11:01:00,
2013-02-19 06:06:00,38.5,34.7,29.42,WSW,248,4.7,8.5,86,0.01,,,0.16,WUHU216HW,2013-02-19 11:06:00,
2013-02-19 06:11:00,38.3,34.5,29.42,SSW,203,6.5,8.5,86,0.01,,,0.16,WUHU216HW,2013-02-19 11:11:00,
2013-02-19 06:16:00,38.0,34.1,29.43,WSW,248,5.4,11.0,86,0.01,,,0.16,WUHU216HW,2013-02-19 11:16:00,
2013-02-19 06:21:00,37.8,33.9,29.43,SSE,158,1.1,11.0,86,0.01,,,0.16,WUHU216HW,2013-02-19 11:21:00,
2013-02-19 06:26:00,37.8,33.9,29.43,SSW,203,2.5,8.3,86,0.01,,,0.16,WUHU216HW,2013-02-19 11:26:00,
2013-02-19 06:31:00,37.4,33.6,29.44,ENE,68,0.4,8.3,86,0.00,,,0.16,WUHU216HW,2013-02-19 11:31:00,
2013-02-19 06:36:00,37.4,33.6,29.44,SSE,158,7.6,7.6,86,0.00,,,0.16,WUHU216HW,2013-02-19 11:36:00,
2013-02-19 06:41:00,37.3,33.4,29.45,West,270,2.5,8.9,86,0.00,,,0.16,WUHU216HW,2013-02-19 11:41:00,
2013-02-19 06:46:00,37.3,33.4,29.45,West,270,1.8,8.9,86,0.00,,,0.16,WUHU216HW,2013-02-19 11:46:00,
2013-02-19 06:51:00,37.3,33.4,29.45,SSW,203,4.3,4.7,86,0.00,,,0.16,WUHU216HW,2013-02-19 11:51:00,
2013-02-19 06:56:00,37.1,33.2,29.45,SSE,158,3.8,7.2,86,0.00,,,0.16,WUHU216HW,2013-02-19 11:56:00,
2013-02-19 07:01:00,37.1,33.2,29.46,SSW,203,6.3,7.2,86,0.00,,,0.16,WUHU216HW,2013-02-19 12:01:00,
2013-02-19 07:06:00,37.1,33.2,29.46,SW,225,2.7,6.3,86,0.00,,,0.16,WUHU216HW,2013-02-19 12:06:00,
2013-02-19 07:11:00,36.9,33.0,29.46,NW,315,6.7,8.1,86,0.00,,,0.16,WUHU216HW,2013-02-19 12:11:00,
2013-02-19 07:16:00,36.9,33.0,29.46,WSW,248,2.5,8.1,86,0.00,,,0.16,WUHU216HW,2013-02-19 12:16:00,
2013-02-19 07:21:00,36.9,33.0,29.46,South,180,2.5,9.6,86,0.00,,,0.16,WUHU216HW,2013-02-19 12:21:00,
2013-02-19 07:26:00,36.7,32.9,29.47,WSW,248,4.9,9.6,86,0.00,,,0.16,WUHU216HW,2013-02-19 12:26:00,
2013-02-19 07:31:00,36.5,32.7,29.47,SW,225,10.7,10.7,86,0.00,,,0.16,WUHU216HW,2013-02-19 12:31:00,
2013-02-19 07:36:00,36.4,32.5,29.48,WSW,248,1.1,10.7,86,0.00,,,0.16,WUHU216HW,2013-02-19 12:36:00,
2013-02-19 07:41:00,36.2,32.0,29.48,NE,45,2.2,8.7,85,0.00,,,0.16,WUHU216HW,2013-02-19 12:41:00,
2013-02-19 07:46:00,36.0,31.9,29.48,NW,315,3.4,6.5,85,0.00,,,0.16,WUHU216HW,2013-02-19 12:46:00,
2013-02-19 07:51:00,35.8,31.7,29.48,WNW,293,4.7,6.5,85,0.00,,,0.16,WUHU216HW,2013-02-19 12:51:00,
2013-02-19 07:56:00,35.6,31.2,29.48,West,270,5.8,5.8,84,0.00,,,0.16,WUHU216HW,2013-02-19 12:56:00,
2013-02-19 08:01:00,35.6,31.2,29.48,West,270,4.3,7.6,84,0.00,,,0.16,WUHU216HW,2013-02-19 13:01:00,
2013-02-19 08:06:00,35.5,31.1,29.49,SW,225,2.0,7.6,84,0.00,,,0.16,WUHU216HW,2013-02-19 13:06:00,
2013-02-19 08:11:00,35.5,31.3,29.49,SSW,203,4.3,4.7,85,0.00,,,0.16,WUHU216HW,2013-02-19 13:11:00,
2013-02-19 08:16:00,35.3,31.1,29.49,South,180,2.5,5.4,85,0.00,,,0.16,WUHU216HW,2013-02-19 13:16:00,
2013-02-19 08:21:00,35.3,30.9,29.49,West,270,3.1,6.3,84,0.00,,,0.16,WUHU216HW,2013-02-19 13:21:00,
2013-02-19 08:26:00,35.1,31.0,29.49,WSW,248,3.4,6.7,85,0.00,,,0.16,WUHU216HW,2013-02-19 13:26:00,
2013-02-19 08:31:00,34.9,30.8,29.49,WNW,293,4.5,6.7,85,0.00,,,0.16,WUHU216HW,2013-02-19 13:31:00,
2013-02-19 08:36:00,34.9,30.8,29.49,SSW,203,3.4,6.3,85,0.00,,,0.16,WUHU216HW,2013-02-19 13:36:00,
2013-02-19 08:41:00,34.9,30.5,29.50,SSW,203,5.8,5.8,84,0.00,,,0.16,WUHU216HW,2013-02-19 13:41:00,
2013-02-19 08:46:00,34.4,30.0,29.50,WNW,293,4.0,10.5,84,0.00,,,0.16,WUHU216HW,2013-02-19 13:46:00,
2013-02-19 08:51:00,34.2,29.8,29.50,ENE,68,2.5,11.2,84,0.00,,,0.16,WUHU216HW,2013-02-19 13:51:00,
2013-02-19 08:56:00,33.8,29.2,29.51,South,180,2.5,11.2,83,0.00,,,0.16,WUHU216HW,2013-02-19 13:56:00,
2013-02-19 09:01:00,33.8,29.2,29.51,SW,225,7.4,8.5,83,0.00,,,0.16,WUHU216HW,2013-02-19 14:01:00,
2013-02-19 09:06:00,33.5,28.8,29.51,SSW,203,4.7,11.4,83,0.00,,,0.16,WUHU216HW,2013-02-19 14:06:00,
2013-02-19 09:11:00,33.5,28.8,29.52,SSE,158,3.1,11.4,83,0.00,,,0.16,WUHU216HW,2013-02-19 14:11:00,
2013-02-19 09:16:00,33.3,28.6,29.52,SSE,158,7.4,7.4,83,0.00,,,0.16,WUHU216HW,2013-02-19 14:16:00,
2013-02-19 09:21:00,33.1,28.4,29.52,SSE,158,7.4,7.4,83,0.00,,,0.16,WUHU216HW,2013-02-19 14:21:00,
2013-02-19 09:26:00,32.9,28.4,29.52,SSE,158,3.1,7.4,83,0.00,,,0.16,WUHU216HW,2013-02-19 14:26:00,
2013-02-19 09:31:00,32.8,28.2,29.52,SSE,158,6.3,6.7,83,0.00,,,0.16,WUHU216HW,2013-02-19 14:31:00,
2013-02-19 09:36:00,32.4,27.8,29.53,SSE,158,6.3,6.5,83,0.00,,,0.16,WUHU216HW,2013-02-19 14:36:00,
2013-02-19 09:41:00,32.2,27.6,29.53,SSE,158,1.1,8.5,83,0.00,,,0.16,WUHU216HW,2013-02-19 14:41:00,
2013-02-19 09:46:00,32.2,27.6,29.53,SSE,158,6.9,8.5,83,0.00,,,0.16,WUHU216HW,2013-02-19 14:46:00,
2013-02-19 09:51:00,32.0,27.6,29.53,SSE,158,4.0,7.6,83,0.00,,,0.16,WUHU216HW,2013-02-19 14:51:00,
2013-02-19 09:56:00,31.9,27.4,29.53,SSE,158,0.4,7.6,83,0.00,,,0.16,WUHU216HW,2013-02-19 14:56:00,
2013-02-19 10:01:00,31.9,27.4,29.53,SSE,158,6.3,6.5,83,0.00,,,0.16,WUHU216HW,2013-02-19 15:01:00,
2013-02-19 10:06:00,31.7,27.2,29.54,SSE,158,2.7,7.8,83,0.00,,,0.16,WUHU216HW,2013-02-19 15:06:00,
2013-02-19 10:11:00,31.5,27.0,29.54,SSE,158,4.3,7.8,83,0.00,,,0.16,WUHU216HW,2013-02-19 15:11:00,
2013-02-19 10:16:00,31.3,26.8,29.54,SSE,158,7.6,7.6,83,0.00,,,0.16,WUHU216HW,2013-02-19 15:16:00,
2013-02-19 10:21:00,31.1,26.7,29.54,SSE,158,6.9,7.6,83,0.00,,,0.16,WUHU216HW,2013-02-19 15:21:00,
2013-02-19 10:26:00,31.1,26.3,29.54,SSE,158,10.7,10.7,82,0.00,,,0.16,WUHU216HW,2013-02-19 15:26:00,
2013-02-19 10:31:00,31.0,26.1,29.54,SSE,158,4.9,10.7,82,0.00,,,0.16,WUHU216HW,2013-02-19 15:31:00,
2013-02-19 10:36:00,30.6,25.7,29.55,SSE,158,7.6,9.6,82,0.00,,,0.16,WUHU216HW,2013-02-19 15:36:00,
2013-02-19 10:41:00,30.6,25.7,29.55,SSE,158,6.9,7.6,82,0.00,,,0.16,WUHU216HW,2013-02-19 15:41:00,
2013-02-19 10:46:00,30.1,24.3,29.56,SSE,158,4.7,13.6,79,0.00,,,0.16,WUHU216HW,2013-02-19 15:46:00,
2013-02-19 10:51:00,29.9,24.1,29.56,SSE,158,5.4,13.6,79,0.00,,,0.16,WUHU216HW,2013-02-19 15:51:00,
2013-02-19 10:56:00,29.9,23.5,29.56,SSE,158,6.0,10.1,77,0.00,,,0.16,WUHU216HW,2013-02-19 15:56:00,
2013-02-19 11:01:00,29.9,23.9,29.56,SSE,158,11.4,11.4,78,0.00,,,0.16,WUHU216HW,2013-02-19 16:01:00,
2013-02-19 11:06:00,30.1,23.4,29.56,SSE,158,4.0,11.4,76,0.00,,,0.16,WUHU216HW,2013-02-19 16:06:00,
2013-02-19 11:11:00,30.2,23.6,29.56,SSE,158,1.8,10.7,76,0.00,,,0.16,WUHU216HW,2013-02-19 16:11:00,
2013-02-19 11:16:00,30.2,23.6,29.56,SSE,158,5.8,8.5,76,0.00,,,0.16,WUHU216HW,2013-02-19 16:16:00,
2013-02-19 11:21:00,29.9,23.2,29.56,SSE,158,3.6,7.8,76,0.00,,,0.16,WUHU216HW,2013-02-19 16:21:00,
2013-02-19 11:26:00,29.9,23.2,29.57,SSE,158,5.4,11.6,76,0.00,,,0.16,WUHU216HW,2013-02-19 16:26:00,
2013-02-19 11:31:00,29.9,22.9,29.57,SSE,158,5.6,12.1,75,0.00,,,0.16,WUHU216HW,2013-02-19 16:31:00,
2013-02-19 11:36:00,30.4,23.0,29.57,SSE,158,6.3,12.1,74,0.00,,,0.16,WUHU216HW,2013-02-19 16:36:00,
2013-02-19 11:41:00,30.8,23.4,29.57,SSE,158,6.0,6.3,74,0.00,,,0.16,WUHU216HW,2013-02-19 16:41:00,
2013-02-19 11:46:00,31.3,23.3,29.57,SSE,158,7.4,7.4,72,0.00,,,0.16,WUHU216HW,2013-02-19 16:46:00,
2013-02-19 11:51:00,31.1,23.1,29.57,SSE,158,4.0,7.4,72,0.00,,,0.16,WUHU216HW,2013-02-19 16:51:00,
2013-02-19 11:56:00,31.1,23.5,29.57,SSE,158,5.8,5.8,73,0.00,,,0.16,WUHU216HW,2013-02-19 16:56:00,
2013-02-19 12:01:00,30.6,23.0,29.57,SSE,158,6.7,6.7,73,0.00,,,0.16,WUHU216HW,2013-02-19 17:01:00,
2013-02-19 12:06:00,30.1,22.4,29.58,SSE,158,5.8,6.7,73,0.00,,,0.16,WUHU216HW,2013-02-19 17:06:00,
2013-02-19 12:11:00,29.2,21.9,29.58,SSE,158,4.7,14.3,74,0.00,,,0.16,WUHU216HW,2013-02-19 17:11:00,
2013-02-19 12:16:00,28.8,21.5,29.58,SSE,158,1.3,14.3,74,0.00,,,0.16,WUHU216HW,2013-02-19 17:16:00,
2013-02-19 12:21:00,29.0,21.4,29.58,SSE,158,12.1,12.1,73,0.00,,,0.16,WUHU216HW,2013-02-19 17:21:00,
2013-02-19 12:26:00,29.3,21.4,29.58,SSE,158,5.4,12.1,72,0.00,,,0.16,WUHU216HW,2013-02-19 17:26:00,
2013-02-19 12:31:00,29.7,20.8,29.58,SSE,158,15.7,15.7,69,0.00,,,0.16,WUHU216HW,2013-02-19 17:31:00,
2013-02-19 12:36:00,29.5,21.0,29.58,SSE,158,2.7,15.7,70,0.00,,,0.16,WUHU216HW,2013-02-19 17:36:00,
2013-02-19 12:41:00,29.5,21.0,29.58,SSE,158,5.8,9.2,70,0.00,,,0.16,WUHU216HW,2013-02-19 17:41:00,
2013-02-19 12:46:00,29.5,21.2,29.58,SSE,158,4.7,9.2,71,0.00,,,0.16,WUHU216HW,2013-02-19 17:46:00,
2013-02-19 12:51:00,29.3,21.4,29.58,SSE,158,4.7,8.9,72,0.00,,,0.16,WUHU216HW,2013-02-19 17:51:00,
2013-02-19 12:56:00,29.0,21.4,29.59,SSE,158,8.5,8.9,73,0.00,,,0.16,WUHU216HW,2013-02-19 17:56:00,
2013-02-19 13:01:00,28.6,21.3,29.59,SSE,158,6.9,8.5,74,0.00,,,0.16,WUHU216HW,2013-02-19 18:01:00,
2013-02-19 13:06:00,28.1,20.9,29.59,SSE,158,7.4,7.6,74,0.00,,,0.16,WUHU216HW,2013-02-19 18:06:00,
2013-02-19 13:11:00,27.7,20.8,29.59,SSE,158,4.9,7.6,75,0.00,,,0.16,WUHU216HW,2013-02-19 18:11:00,
2013-02-19 13:16:00,27.7,20.8,29.60,SSE,158,6.7,6.7,75,0.00,,,0.16,WUHU216HW,2013-02-19 18:16:00,
2013-02-19 13:21:00,27.7,20.8,29.60,SSE,158,4.7,11.9,75,0.00,,,0.16,WUHU216HW,2013-02-19 18:21:00,
2013-02-19 13:26:00,27.5,20.6,29.60,SSE,158,2.7,11.9,75,0.00,,,0.16,WUHU216HW,2013-02-19 18:26:00,
2013-02-19 13:31:00,27.2,20.3,29.60,SSE,158,6.0,8.5,75,0.00,,,0.16,WUHU216HW,2013-02-19 18:31:00,
2013-02-19 13:36:00,27.0,20.3,29.60,SSE,158,3.8,8.5,76,0.00,,,0.16,WUHU216HW,2013-02-19 18:36:00,
2013-02-19 13:41:00,27.2,20.5,29.60,SSE,158,6.3,7.8,76,0.00,,,0.16,WUHU216HW,2013-02-19 18:41:00,
2013-02-19 13:46:00,27.0,20.1,29.61,SSE,158,5.4,12.8,75,0.00,,,0.16,WUHU216HW,2013-02-19 18:46:00,
2013-02-19 13:51:00,27.0,20.1,29.61,SSE,158,7.8,12.8,75,0.00,,,0.16,WUHU216HW,2013-02-19 18:51:00,
2013-02-19 13:56:00,27.4,19.5,29.61,SSE,158,6.3,8.3,72,0.00,,,0.16,WUHU216HW,2013-02-19 18:56:00,
2013-02-19 14:01:00,27.7,20.5,29.61,SSE,158,5.1,9.4,74,0.00,,,0.16,WUHU216HW,2013-02-19 19:01:00,
2013-02-19 14:06:00,28.1,20.9,29.61,SSE,158,5.4,9.4,74,0.00,,,0.16,WUHU216HW,2013-02-19 19:06:00,
2013-02-19 14:11:00,27.9,20.3,29.61,SSE,158,4.9,7.6,73,0.00,,,0.16,WUHU216HW,2013-02-19 19:11:00,
2013-02-19 14:16:00,27.7,20.2,29.61,SSE,158,2.2,8.9,73,0.00,,,0.16,WUHU216HW,2013-02-19 19:16:00,
2013-02-19 14:21:00,27.7,20.5,29.61,SSE,158,3.8,8.9,74,0.00,,,0.16,WUHU216HW,2013-02-19 19:21:00,
2013-02-19 14:26:00,27.9,20.7,29.61,SSE,158,5.1,6.5,74,0.00,,,0.16,WUHU216HW,2013-02-19 19:26:00,
2013-02-19 14:31:00,27.7,20.5,29.61,SSE,158,2.2,6.5,74,0.00,,,0.16,WUHU216HW,2013-02-19 19:31:00,
2013-02-19 14:36:00,27.7,20.2,29.61,SSE,158,4.7,6.5,73,0.00,,,0.16,WUHU216HW,2013-02-19 19:36:00,
2013-02-19 14:41:00,28.1,20.5,29.62,SSE,158,4.7,7.2,73,0.00,,,0.16,WUHU216HW,2013-02-19 19:41:00,
2013-02-19 14:46:00,28.1,20.5,29.62,SSE,158,5.8,11.2,73,0.00,,,0.16,WUHU216HW,2013-02-19 19:46:00,
2013-02-19 14:51:00,27.9,20.3,29.62,SSE,158,3.4,11.2,73,0.00,,,0.16,WUHU216HW,2013-02-19 19:51:00,
2013-02-19 14:56:00,27.7,20.2,29.62,SSE,158,8.5,8.5,73,0.00,,,0.16,WUHU216HW,2013-02-19 19:56:00,
2013-02-19 15:01:00,27.2,19.6,29.62,SSE,158,2.5,8.5,73,0.00,,,0.16,WUHU216HW,2013-02-19 20:01:00,
2013-02-19 15:06:00,27.0,20.1,29.63,SSE,158,3.8,12.1,75,0.00,,,0.16,WUHU216HW,2013-02-19 20:06:00,
2013-02-19 15:11:00,26.8,19.6,29.63,SSE,158,6.9,12.1,74,0.00,,,0.16,WUHU216HW,2013-02-19 20:11:00,
2013-02-19 15:16:00,26.8,19.9,29.63,SSE,158,11.0,11.0,75,0.00,,,0.16,WUHU216HW,2013-02-19 20:16:00,
2013-02-19 15:21:00,26.8,19.6,29.64,SSE,158,6.3,11.0,74,0.00,,,0.16,WUHU216HW,2013-02-19 20:21:00,
2013-02-19 15:26:00,26.6,19.5,29.64,SSE,158,2.7,6.9,74,0.00,,,0.16,WUHU216HW,2013-02-19 20:26:00,
2013-02-19 15:31:00,26.5,19.3,29.64,SSE,158,2.5,8.1,74,0.00,,,0.16,WUHU216HW,2013-02-19 20:31:00,
2013-02-19 15:36:00,26.5,19.5,29.65,SSE,158,3.4,8.1,75,0.00,,,0.16,WUHU216HW,2013-02-19 20:36:00,
2013-02-19 15:41:00,26.5,19.5,29.65,SSE,158,5.4,5.4,75,0.00,,,0.16,WUHU216HW,2013-02-19 20:41:00,
2013-02-19 15:46:00,26.3,19.1,29.65,SSE,158,2.7,8.1,74,0.00,,,0.16,WUHU216HW,2013-02-19 20:46:00,
2013-02-19 15:51:00,26.1,19.2,29.65,SSE,158,3.4,8.1,75,0.00,,,0.16,WUHU216HW,2013-02-19 20:51:00,
2013-02-19 15:56:00,26.3,19.1,29.65,SSE,158,6.3,6.7,74,0.00,,,0.16,WUHU216HW,2013-02-19 20:56:00,
2013-02-19 16:01:00,26.3,19.4,29.66,SSE,158,0.9,6.3,75,0.00,,,0.16,WUHU216HW,2013-02-19 21:01:00,
2013-02-19 16:06:00,26.3,19.4,29.66,SSE,158,1.8,5.6,75,0.00,,,0.16,WUHU216HW,2013-02-19 21:06:00,
2013-02-19 16:11:00,26.3,19.1,29.66,SSE,158,4.7,9.2,74,0.00,,,0.16,WUHU216HW,2013-02-19 21:11:00,
2013-02-19 16:16:00,26.5,18.6,29.67,SSE,158,6.0,9.2,72,0.00,,,0.16,WUHU216HW,2013-02-19 21:16:00,
2013-02-19 16:21:00,26.5,18.9,29.67,SSE,158,5.4,6.0,73,0.00,,,0.16,WUHU216HW,2013-02-19 21:21:00,
2013-02-19 16:26:00,26.5,18.6,29.67,SSE,158,1.8,9.2,72,0.00,,,0.16,WUHU216HW,2013-02-19 21:26:00,
2013-02-19 16:31:00,26.3,17.8,29.68,SSE,158,2.7,9.2,70,0.00,,,0.16,WUHU216HW,2013-02-19 21:31:00,
2013-02-19 16:36:00,26.1,17.9,29.68,SSE,158,3.8,6.7,71,0.00,,,0.16,WUHU216HW,2013-02-19 21:36:00,
2013-02-19 16:41:00,26.1,17.9,29.68,SSE,158,4.0,5.1,71,0.00,,,0.16,WUHU216HW,2013-02-19 21:41:00,
2013-02-19 16:46:00,26.1,17.9,29.68,SSE,158,5.4,5.4,71,0.00,,,0.16,WUHU216HW,2013-02-19 21:46:00,
2013-02-19 16:51:00,25.9,17.7,29.69,SSE,158,8.3,8.3,71,0.00,,,0.16,WUHU216HW,2013-02-19 21:51:00,
2013-02-19 16:56:00,25.7,17.6,29.69,SSE,158,4.3,12.8,71,0.00,,,0.16,WUHU216HW,2013-02-19 21:56:00,
2013-02-19 17:01:00,25.6,17.5,29.69,SSE,158,5.6,12.8,71,0.00,,,0.16,WUHU216HW,2013-02-19 22:01:00,
2013-02-19 17:06:00,25.6,17.5,29.70,SSE,158,6.9,10.5,71,0.00,,,0.16,WUHU216HW,2013-02-19 22:06:00,
2013-02-19 17:11:00,25.4,17.6,29.70,SSE,158,6.9,6.9,72,0.00,,,0.16,WUHU216HW,2013-02-19 22:11:00,
2013-02-19 17:16:00,25.4,17.6,29.70,SSE,158,4.0,8.5,72,0.00,,,0.16,WUHU216HW,2013-02-19 22:16:00,
2013-02-19 17:21:00,25.4,17.6,29.70,SSE,158,3.6,8.5,72,0.00,,,0.16,WUHU216HW,2013-02-19 22:21:00,
2013-02-19 17:26:00,25.4,17.6,29.70,SSE,158,3.1,7.8,72,0.00,,,0.16,WUHU216HW,2013-02-19 22:26:00,
2013-02-19 17:31:00,25.4,17.6,29.71,SSE,158,3.6,8.1,72,0.00,,,0.16,WUHU216HW,2013-02-19 22:31:00,
2013-02-19 17:36:00,25.2,17.4,29.71,SSE,158,7.4,9.6,72,0.00,,,0.16,WUHU216HW,2013-02-19 22:36:00,
2013-02-19 17:41:00,25.0,17.2,29.72,SSE,158,4.7,9.6,72,0.00,,,0.16,WUHU216HW,2013-02-19 22:41:00,
2013-02-19 17:46:00,24.8,17.0,29.72,SSE,158,3.8,8.7,72,0.00,,,0.16,WUHU216HW,2013-02-19 22:46:00,
2013-02-19 17:51:00,24.8,17.4,29.72,SSE,158,3.1,11.4,73,0.00,,,0.16,WUHU216HW,2013-02-19 22:51:00,
2013-02-19 17:56:00,24.7,17.8,29.73,SSE,158,3.4,11.4,75,0.00,,,0.16,WUHU216HW,2013-02-19 22:56:00,
2013-02-19 18:01:00,24.5,18.3,29.73,SSE,158,8.9,9.8,77,0.00,,,0.16,WUHU216HW,2013-02-19 23:01:00,
2013-02-19 18:06:00,24.1,17.9,29.74,SSE,158,3.4,9.8,77,0.00,,,0.16,WUHU216HW,2013-02-19 23:06:00,
2013-02-19 18:11:00,24.1,18.3,29.74,SSE,158,4.7,4.7,78,0.00,,,0.16,WUHU216HW,2013-02-19 23:11:00,
2013-02-19 18:16:00,23.9,18.4,29.74,SSE,158,1.3,5.4,79,0.00,,,0.16,WUHU216HW,2013-02-19 23:16:00,
2013-02-19 18:21:00,23.8,17.9,29.75,SSE,158,5.4,6.0,78,0.00,,,0.16,WUHU216HW,2013-02-19 23:21:00,
2013-02-19 18:26:00,23.6,18.1,29.75,SSE,158,2.5,6.0,79,0.00,,,0.16,WUHU216HW,2013-02-19 23:26:00,
2013-02-19 18:31:00,23.2,18.0,29.75,SSE,158,2.2,11.4,80,0.00,,,0.16,WUHU216HW,2013-02-19 23:31:00,
2013-02-19 18:36:00,23.2,18.0,29.75,SSE,158,4.7,11.4,80,0.00,,,0.16,WUHU216HW,2013-02-19 23:36:00,
2013-02-19 18:41:00,23.2,18.0,29.76,SSE,158,7.4,8.7,80,0.00,,,0.16,WUHU216HW,2013-02-19 23:41:00,
2013-02-19 18:46:00,22.9,17.6,29.76,SSE,158,5.4,10.5,80,0.00,,,0.16,WUHU216HW,2013-02-19 23:46:00,
2013-02-19 18:51:00,22.9,17.9,29.76,SSE,158,4.5,10.5,81,0.00,,,0.16,WUHU216HW,2013-02-19 23:51:00,
2013-02-19 18:56:00,22.7,18.0,29.77,SSE,158,1.1,5.8,82,0.00,,,0.16,WUHU216HW,2013-02-19 23:56:00,
2013-02-19 19:01:00,22.7,17.7,29.77,SSE,158,1.3,4.7,81,0.00,,,0.16,WUHU216HW,2013-02-20 00:01:00,
2013-02-19 19:06:00,22.7,18.0,29.78,SSE,158,1.8,3.8,82,0.00,,,0.16,WUHU216HW,2013-02-20 00:06:00,
2013-02-19 19:11:00,22.5,17.8,29.78,SSE,158,3.4,3.4,82,0.00,,,0.16,WUHU216HW,2013-02-20 00:11:00,
2013-02-19 19:16:00,22.3,17.6,29.78,SSE,158,6.7,6.7,82,0.00,,,0.16,WUHU216HW,2013-02-20 00:16:00,
2013-02-19 19:21:00,22.0,17.6,29.78,SSE,158,5.4,8.5,83,0.00,,,0.16,WUHU216HW,2013-02-20 00:21:00,
2013-02-19 19:26:00,21.8,17.1,29.78,SSE,158,3.8,9.6,82,0.00,,,0.16,WUHU216HW,2013-02-20 00:26:00,
2013-02-19 19:31:00,21.8,16.8,29.79,SSE,158,5.8,9.6,81,0.00,,,0.16,WUHU216HW,2013-02-20 00:31:00,
2013-02-19 19:36:00,21.8,16.6,29.79,SSE,158,3.6,10.5,80,0.00,,,0.16,WUHU216HW,2013-02-20 00:36:00,
2013-02-19 19:41:00,21.6,15.8,29.79,SSE,158,2.5,10.5,78,0.00,,,0.16,WUHU216HW,2013-02-20 00:41:00,
2013-02-19 19:46:00,21.6,15.5,29.79,SSE,158,7.6,7.6,77,0.00,,,0.16,WUHU216HW,2013-02-20 00:46:00,
2013-02-19 19:51:00,21.4,14.7,29.79,SSE,158,1.1,7.6,75,0.00,,,0.16,WUHU216HW,2013-02-20 00:51:00,
2013-02-19 19:56:00,21.4,14.7,29.80,SSE,158,3.8,5.6,75,0.00,,,0.16,WUHU216HW,2013-02-20 00:56:00,
2013-02-19 20:01:00,21.2,14.5,29.80,SSE,158,6.3,6.7,75,0.00,,,0.16,WUHU216HW,2013-02-20 01:01:00,
2013-02-19 20:06:00,21.2,13.6,29.80,SSE,158,7.2,7.2,72,0.00,,,0.16,WUHU216HW,2013-02-20 01:06:00,
2013-02-19 20:11:00,21.1,13.4,29.80,SSE,158,1.8,7.2,72,0.00,,,0.16,WUHU216HW,2013-02-20 01:11:00,
2013-02-19 20:16:00,21.1,13.4,29.80,SSE,158,6.5,8.9,72,0.00,,,0.16,WUHU216HW,2013-02-20 01:16:00,
2013-02-19 20:21:00,20.9,13.2,29.80,SSE,158,4.7,8.9,72,0.00,,,0.16,WUHU216HW,2013-02-20 01:21:00,
2013-02-19 20:26:00,20.7,13.1,29.80,SSE,158,5.4,11.6,72,0.00,,,0.16,WUHU216HW,2013-02-20 01:26:00,
2013-02-19 20:31:00,20.7,12.7,29.80,SSE,158,6.5,11.6,71,0.00,,,0.16,WUHU216HW,2013-02-20 01:31:00,
2013-02-19 20:36:00,20.7,12.7,29.81,SSE,158,3.4,6.5,71,0.00,,,0.16,WUHU216HW,2013-02-20 01:36:00,
2013-02-19 20:41:00,20.7,12.7,29.81,SSE,158,8.3,8.3,71,0.00,,,0.16,WUHU216HW,2013-02-20 01:41:00,
2013-02-19 20:46:00,20.5,12.5,29.81,SSE,158,13.4,13.4,71,0.00,,,0.16,WUHU216HW,2013-02-20 01:46:00,
2013-02-19 20:51:00,20.5,12.2,29.81,SSE,158,3.1,13.4,70,0.00,,,0.16,WUHU216HW,2013-02-20 01:51:00,
2013-02-19 20:56:00,20.5,12.2,29.81,SSE,158,1.8,14.3,70,0.00,,,0.16,WUHU216HW,2013-02-20 01:56:00,
2013-02-19 21:01:00,20.5,11.9,29.81,SSE,158,3.8,14.3,69,0.00,,,0.16,WUHU216HW,2013-02-20 02:01:00,
2013-02-19 21:06:00,20.5,11.9,29.82,SSE,158,4.0,10.3,69,0.00,,,0.16,WUHU216HW,2013-02-20 02:06:00,
2013-02-19 21:11:00,20.3,12.1,29.82,SSE,158,1.8,9.6,70,0.00,,,0.16,WUHU216HW,2013-02-20 02:11:00,
2013-02-19 21:16:00,20.3,12.3,29.82,SSE,158,8.9,9.8,71,0.00,,,0.16,WUHU216HW,2013-02-20 02:16:00,
2013-02-19 21:21:00,20.3,12.1,29.82,SSE,158,9.8,9.8,70,0.00,,,0.16,WUHU216HW,2013-02-20 02:21:00,
2013-02-19 21:26:00,20.3,12.3,29.82,SSE,158,2.2,9.8,71,0.00,,,0.16,WUHU216HW,2013-02-20 02:26:00,
2013-02-19 21:31:00,20.3,12.3,29.82,SSE,158,2.0,11.0,71,0.00,,,0.16,WUHU216HW,2013-02-20 02:31:00,
2013-02-19 21:36:00,20.3,12.1,29.83,SSE,158,1.1,11.0,70,0.00,,,0.16,WUHU216HW,2013-02-20 02:36:00,
2013-02-19 21:41:00,20.3,12.1,29.83,SSE,158,5.1,5.6,70,0.00,,,0.16,WUHU216HW,2013-02-20 02:41:00,
2013-02-19 21:46:00,20.3,12.1,29.83,SSE,158,4.5,5.4,70,0.00,,,0.16,WUHU216HW,2013-02-20 02:46:00,
2013-02-19 21:51:00,20.3,12.1,29.83,SSE,158,5.4,7.2,70,0.00,,,0.16,WUHU216HW,2013-02-20 02:51:00,
2013-02-19 21:56:00,20.2,11.9,29.83,SSE,158,6.0,7.2,70,0.00,,,0.16,WUHU216HW,2013-02-20 02:56:00,
2013-02-19 22:01:00,20.0,11.3,29.83,SSE,158,4.7,6.9,69,0.00,,,0.16,WUHU216HW,2013-02-20 03:01:00,
2013-02-19 22:06:00,20.0,11.7,29.83,SSE,158,7.4,7.4,70,0.00,,,0.16,WUHU216HW,2013-02-20 03:06:00,
2013-02-19 22:11:00,19.8,11.2,29.83,SSE,158,5.4,8.5,69,0.00,,,0.16,WUHU216HW,2013-02-20 03:11:00,
2013-02-19 22:16:00,19.8,11.5,29.83,SSE,158,3.4,8.9,70,0.00,,,0.16,WUHU216HW,2013-02-20 03:16:00,
2013-02-19 22:21:00,19.8,11.5,29.83,SSE,158,1.8,8.9,70,0.00,,,0.16,WUHU216HW,2013-02-20 03:21:00,
2013-02-19 22:26:00,19.8,11.8,29.83,SSE,158,1.1,10.5,71,0.00,,,0.16,WUHU216HW,2013-02-20 03:26:00,
2013-02-19 22:31:00,19.6,11.6,29.83,SSE,158,2.2,10.5,71,0.00,,,0.16,WUHU216HW,2013-02-20 03:31:00,
2013-02-19 22:36:00,19.6,11.6,29.84,SSE,158,10.5,10.5,71,0.00,,,0.16,WUHU216HW,2013-02-20 03:36:00,
2013-02-19 22:41:00,19.6,12.0,29.84,SSE,158,4.0,10.5,72,0.00,,,0.16,WUHU216HW,2013-02-20 03:41:00,
2013-02-19 22:46:00,19.6,12.0,29.84,SSE,158,3.4,8.3,72,0.00,,,0.16,WUHU216HW,2013-02-20 03:46:00,
2013-02-19 22:51:00,19.6,12.0,29.84,SSE,158,6.7,8.3,72,0.00,,,0.16,WUHU216HW,2013-02-20 03:51:00,
2013-02-19 22:56:00,19.6,12.0,29.84,SSE,158,4.9,8.5,72,0.00,,,0.16,WUHU216HW,2013-02-20 03:56:00,
2013-02-19 23:01:00,19.8,12.2,29.84,SSE,158,4.5,8.7,72,0.00,,,0.16,WUHU216HW,2013-02-20 04:01:00,
2013-02-19 23:06:00,19.8,12.2,29.85,SSE,158,3.1,8.7,72,0.00,,,0.16,WUHU216HW,2013-02-20 04:06:00,
2013-02-19 23:11:00,19.8,12.2,29.84,SSE,158,4.5,6.9,72,0.00,,,0.16,WUHU216HW,2013-02-20 04:11:00,
2013-02-19 23:16:00,19.8,12.4,29.84,SSE,158,4.5,4.7,73,0.00,,,0.16,WUHU216HW,2013-02-20 04:16:00,
2013-02-19 23:21:00,20.0,12.3,29.84,SSE,158,1.1,8.9,72,0.00,,,0.16,WUHU216HW,2013-02-20 04:21:00,
2013-02-19 23:26:00,20.0,12.3,29.84,SSE,158,1.6,8.9,72,0.00,,,0.16,WUHU216HW,2013-02-20 04:26:00,
2013-02-19 23:31:00,19.8,12.2,29.84,SSE,158,3.6,5.1,72,0.00,,,0.16,WUHU216HW,2013-02-20 04:31:00,
2013-02-19 23:36:00,19.8,12.2,29.85,SSE,158,3.6,5.1,72,0.00,,,0.16,WUHU216HW,2013-02-20 04:36:00,
2013-02-19 23:41:00,19.8,12.2,29.85,SSE,158,3.4,5.6,72,0.00,,,0.16,WUHU216HW,2013-02-20 04:41:00,
2013-02-19 23:46:00,19.8,12.2,29.85,SSE,158,0.4,5.6,72,0.00,,,0.16,WUHU216HW,2013-02-20 04:46:00,
2013-02-19 23:51:00,20.0,12.6,29.85,SSE,158,2.7,5.6,73,0.00,,,0.16,WUHU216HW,2013-02-20 04:51:00,
2013-02-19 23:56:00,20.0,12.6,29.85,SSE,158,4.0,4.5,73,0.00,,,0.16,WUHU216HW,2013-02-20 04:56:00,